Weather observations for the past three days for
Naples, Naples Municipal Airport
Metric (Imperial)
Date Time (edt) Wind (kph) Vis. (km) Weather Sky Cond. Temperature (ºC) Relative Humidity Wind Chill (°C) Heat Index (°C) Pressure Precipitation (cm)
Air Dwpt 6 hour altimeter (cm) sea level (mb) 1 hr 3 hr 6 hr
Max. Min.
10 11:53 SW 19 16.09 Fair CLR 30.6 24.4 70% 36 76.25 1016.5
10 10:53 S 9 16.09 Mostly Cloudy FEW026 SCT032 BKN041 30.6 24.4 70% 36 76.25 1016.5
10 09:53 SE 9 16.09 Fair CLR 28.9 25 80% 34 76.23 1016.1
10 08:53 E 13 16.09 A Few Clouds FEW024 27.2 24.4 85% 31 76.23 1015.9
10 07:53 NE 7 16.09 Fair CLR 25.6 23.9 26.7 25 90% 27 76.17 1015.3
10 06:53 SE 13 14.48 Fair CLR 25 23.3 90% 26 76.07 1014.1
10 05:53 E 11 14.48 Fair CLR 25 23.9 94% 26 76.05 1013.9
10 04:53 NE 9 12.87 Partly Cloudy SCT025 25 24.4 96% 25 76.05 1013.7
10 03:53 NE 6 16.09 Fair CLR 25.6 25 97% 27 76.05 1013.7
10 02:53 NE 6 16.09 Overcast BKN080 OVC100 26.7 25.6 94% 30 76.07 1014.0
10 01:53 Calm 16.09 Overcast OVC090 26.7 25.6 28.9 26.1 94% 30 76.1 1014.4
10 00:53 Calm 16.09 Fair CLR 26.1 25 94% 28 76.12 1014.6
09 23:53 S 6 16.09 Fair CLR 27.2 25 88% 31 76.12 1014.7
09 22:53 Calm 16.09 Fair CLR 27.2 25 88% 31 76.12 1014.6
09 21:53 Calm 16.09 Fair CLR 27.8 25 85% 32 76.07 1014.0
09 20:53 SW 11 16.09 Fair CLR 27.8 25 85% 32 76 1013.1
09 19:53 S 15 16.09 Fair CLR 28.9 24.4 32.2 28.3 77% 34 75.95 1012.4
09 18:53 S 15 16.09 Fair CLR 29.4 22.8 68% 33 75.92 1011.9
09 17:53 SW 20 16.09 Fair CLR 30.6 22.2 61% 34 75.9 1011.7
09 16:53 SW 22 16.09 Fair CLR 31.1 20.6 54% 34 75.9 1011.8
09 15:53 SW 17 16.09 Fair CLR 31.1 21.7 57% 34 75.95 1012.4
09 14:53 SW 19 16.09 Fair CLR 31.7 21.1 53% 35 76 1013.1
09 13:53 SW 20 16.09 Fair CLR 32.2 21.7 32.2 25 54% 36 76.02 1013.4
09 12:53 S 20 16.09 Fair CLR 31.1 22.8 61% 35 76.07 1014.0
09 11:53 SW 24 16.09 A Few Clouds FEW033 31.1 21.7 57% 34 76.1 1014.3
09 10:53 S 13 16.09 Fair CLR 30 22.8 65% 34 76.07 1014.2
09 09:53 S 11 16.09 Fair CLR 28.9 22.8 70% 32 76.07 1013.9
09 08:53 E 11 16.09 Fair CLR 26.7 22.2 76% 29 76.05 1013.8
09 07:53 E 7 16.09 Fair CLR 25 22.8 26.1 23.9 88% 26 76.02 1013.4
09 06:53 E 6 12.87 Fair CLR 23.9 22.8 94% 23 76 1013.2
09 05:53 Calm 14.48 Fair CLR 24.4 22.8 91% 24 75.97 1012.8
09 04:53 NW 6 16.09 Fair CLR 25 23.3 90% 26 75.97 1012.8
09 03:53 Calm 16.09 Fair CLR 24.4 23.3 94% 24 76 1012.9
09 02:53 Calm 16.09 Fair CLR 25.6 23.3 87% 27 76.02 1013.5
09 01:53 Calm 16.09 A Few Clouds FEW065 26.7 23.9 28.3 26.1 85% 29 76.07 1014.0
09 00:53 Calm 16.09 Mostly Cloudy FEW018 BKN065 26.7 23.9 85% 29 76.1 1014.5
08 23:53 NW 7 16.09 Fair CLR 26.1 23.9 88% 28 76.12 1014.7
08 22:53 NW 6 16.09 Fair CLR 27.2 23.9 82% 30 76.1 1014.3
08 21:53 NW 13 16.09 Fair CLR 27.2 23.3 79% 30 76.02 1013.5
08 20:53 W 13 16.09 Fair CLR 27.8 22.8 74% 31 75.97 1012.8
08 19:53 SW 9 16.09 Fair CLR 28.3 22.8 31.1 28.3 72% 32 75.92 1012.1
08 18:53 SW 11 16.09 Fair CLR 29.4 23.3 70% 34 75.92 1011.9
08 17:53 W 13 16.09 Fair CLR 30 22.8 65% 34 75.92 1011.9
08 16:53 W 13 16.09 Fair CLR 30 22.8 65% 34 75.92 1012.1
08 15:53 W 17 16.09 Fair CLR 30 22.8 65% 34 75.97 1012.8
08 14:53 W 19 16.09 A Few Clouds FEW035 30.6 22.8 63% 35 76.05 1013.8
08 13:53 W 17 16.09 Fair CLR 30 22.2 31.1 23.9 63% 33 76.1 1014.4
08 12:53 W 17 16.09 Fair CLR 30 22.8 65% 34 76.15 1015.2
08 11:53 W 9 16.09 Partly Cloudy SCT034 30 22.8 65% 34 76.2 1015.9
08 10:53 Calm 16.09 Partly Cloudy SCT028 29.4 22.2 65% 33 76.25 1016.3
08 09:53 NE 9 16.09 Fair CLR 27.8 22.2 72% 30 76.23 1016.2
08 08:53 N 7 16.09 Fair CLR 25.6 23.3 87% 27 76.23 1016.0
08 07:53 E 6 11.27 Fair CLR 23.9 23.3 24.4 22.8 96% 23 76.17 1015.4
08 06:53 E 6 9.66 Fog/Mist CLR 22.8 22.2 96% 76.12 1014.7
08 05:53 E 9 11.27 Fair CLR 22.8 22.8 100% 76.05 1013.8
08 04:53 NE 6 11.27 Fair CLR 23.9 23.3 96% 23 76.05 1013.7
08 03:53 Calm 8.05 Fog/Mist CLR 23.3 22.8 97% 76.05 1013.7
08 02:53 Calm 12.87 Fair CLR 23.9 23.3 96% 23 76.05 1013.9
08 01:53 Calm 12.87 Fair CLR 24.4 23.9 27.2 23.9 97% 24 76.07 1014.2
08 00:53 W 7 12.87 Fair CLR 24.4 23.9 97% 24 76.12 1014.6
07 23:53 W 7 12.87 Fair CLR 24.4 23.9 97% 24 76.12 1014.8
07 22:53 Calm 14.48 Fair CLR 25 23.9 94% 26 76.12 1014.7
07 21:53 NW 6 16.09 Fair CLR 25.6 23.9 90% 27 76.1 1014.4
07 20:53 NW 7 16.09 Fair CLR 26.1 23.9 88% 28 76.1 1014.4
07 19:53 NW 13 16.09 Fair CLR 27.2 23.3 30 27.2 79% 30 76.1 1014.3
07 18:53 SW 13 16.09 Fair CLR 27.8 23.3 77% 31 76.07 1014.0
07 17:53 W 13 16.09 Fair CLR 29.4 23.9 72% 34 76.1 1014.3
07 16:53 W 13 16.09 Fair CLR 28.9 23.3 72% 33 76.1 1014.3
07 15:53 W 15 16.09 Fair CLR 29.4 23.3 70% 34 76.12 1014.7
07 14:53 SW 15 16.09 Fair CLR 28.9 23.3 72% 33 76.17 1015.3
07 13:53 W 13 16.09 Fair CLR 30 22.8 30 24.4 65% 34 76.23 1016.1
07 12:53 SW 15 G 28 16.09 Fair CLR 29.4 22.8 68% 33 76.25 1016.3
Date Time (edt) Wind (kph) Vis. (km) Weather Sky Cond. Air Dwpt Max. Min. Relative Humidity Wind Chill (°C) Heat Index (°C) altimeter (cm) sea level (mb) 1 hr 3 hr 6 hr
6 hour
Temperature (ºC) Pressure Precipitation (cm)